createdAt,value
2018-06-10T00:02:19.664Z,99439.00
2018-06-10T00:04:48.523Z,99430.00
2018-06-10T00:07:17.665Z,99432.00
2018-06-10T00:09:46.522Z,99429.00
2018-06-10T00:12:15.575Z,99433.00
2018-06-10T00:14:44.623Z,99434.00
2018-06-10T00:17:13.672Z,99435.00
2018-06-10T00:19:42.719Z,99433.00
2018-06-10T00:22:11.614Z,99428.00
2018-06-10T00:24:40.655Z,99425.00
2018-06-10T00:27:09.728Z,99426.00
2018-06-10T00:29:38.799Z,99421.00
2018-06-10T00:32:07.856Z,99420.00
2018-06-10T00:34:36.919Z,99412.00
2018-06-10T00:37:06.072Z,99415.00
2018-06-10T00:39:35.063Z,99423.00
2018-06-10T00:42:04.119Z,99423.00
2018-06-10T00:44:33.176Z,99421.00
2018-06-10T00:47:02.233Z,99419.00
2018-06-10T00:49:31.299Z,99419.00
2018-06-10T00:52:00.343Z,99419.00
2018-06-10T00:54:29.415Z,99420.00
2018-06-10T00:56:58.476Z,99422.00
2018-06-10T00:59:27.536Z,99417.00
2018-06-10T01:01:56.627Z,99418.00
2018-06-10T01:04:25.675Z,99420.00
2018-06-10T01:06:54.739Z,99420.00
2018-06-10T01:09:23.779Z,99416.00
2018-06-10T01:11:53.470Z,99416.00
2018-06-10T01:14:22.517Z,99418.00
2018-06-10T01:16:51.625Z,99423.00
2018-06-10T01:19:20.839Z,99438.00
2018-06-10T01:21:50.711Z,99442.00
2018-06-10T01:24:19.756Z,99439.00
2018-06-10T01:26:51.388Z,99440.00
2018-06-10T01:29:20.914Z,99448.00
2018-06-10T01:31:49.962Z,99449.00
2018-06-10T01:34:19.015Z,99447.00
2018-06-10T01:36:48.071Z,99452.00
2018-06-10T01:39:17.131Z,99451.00
2018-06-10T01:41:46.175Z,99458.00
2018-06-10T01:44:15.223Z,99448.00
2018-06-10T01:46:44.279Z,99450.00
2018-06-10T01:49:13.331Z,99449.00
2018-06-10T01:51:42.499Z,99444.00
2018-06-10T01:54:11.540Z,99442.00
2018-06-10T01:56:40.566Z,99446.00
2018-06-10T01:59:09.648Z,99442.00
2018-06-10T02:01:38.764Z,99440.00
2018-06-10T02:04:07.816Z,99435.00
2018-06-10T02:06:36.859Z,99428.00
2018-06-10T02:09:06.990Z,99424.00
2018-06-10T02:11:36.023Z,99423.00
2018-06-10T02:14:05.083Z,99425.00
2018-06-10T02:16:34.127Z,99430.00
2018-06-10T02:19:03.183Z,99426.00
2018-06-10T02:21:32.229Z,99426.00
2018-06-10T02:24:01.311Z,99425.00
2018-06-10T02:26:30.332Z,99422.00
2018-06-10T02:28:59.379Z,99414.00
2018-06-10T02:31:28.488Z,99407.00
2018-06-10T02:33:57.548Z,99407.00
2018-06-10T02:36:26.607Z,99410.00
2018-06-10T02:38:55.675Z,99412.00
2018-06-10T02:41:24.812Z,99414.00
2018-06-10T02:43:53.929Z,99421.00
2018-06-10T02:46:22.967Z,99423.00
2018-06-10T02:48:52.007Z,99421.00
2018-06-10T02:51:21.060Z,99413.00
2018-06-10T02:53:50.160Z,99420.00
2018-06-10T02:56:19.242Z,99418.00
2018-06-10T02:58:48.371Z,99416.00
2018-06-10T03:01:17.407Z,99417.00
2018-06-10T03:03:46.475Z,99420.00
2018-06-10T03:06:15.531Z,99421.00
2018-06-10T03:08:44.575Z,99418.00
2018-06-10T03:11:13.632Z,99416.00
2018-06-10T03:13:42.679Z,99416.00
2018-06-10T03:16:11.737Z,99421.00
2018-06-10T03:18:40.767Z,99421.00
2018-06-10T03:21:09.809Z,99416.00
2018-06-10T03:23:38.839Z,99412.00
2018-06-10T03:26:07.893Z,99410.00
2018-06-10T03:28:36.931Z,99417.00
2018-06-10T03:31:06.111Z,99416.00
2018-06-10T03:33:35.157Z,99414.00
2018-06-10T03:36:04.220Z,99415.00
2018-06-10T03:38:33.287Z,99420.00
2018-06-10T03:41:02.385Z,99420.00
2018-06-10T03:43:31.437Z,99419.00
2018-06-10T03:46:00.550Z,99416.00
2018-06-10T03:48:29.644Z,99413.00
2018-06-10T03:50:58.812Z,99408.00
2018-06-10T03:53:27.884Z,99418.00
2018-06-10T03:55:56.983Z,99413.00
2018-06-10T03:58:25.963Z,99414.00
2018-06-10T04:00:55.024Z,99415.00
2018-06-10T04:03:24.189Z,99407.00
2018-06-10T04:05:53.238Z,99408.00
2018-06-10T04:08:22.284Z,99413.00
2018-06-10T04:10:51.407Z,99408.00
2018-06-10T04:13:20.455Z,99413.00
2018-06-10T04:15:49.512Z,99411.00
2018-06-10T04:18:18.558Z,99412.00
2018-06-10T04:20:47.643Z,99408.00
2018-06-10T04:23:16.675Z,99411.00
2018-06-10T04:25:45.735Z,99416.00
2018-06-10T04:28:14.771Z,99417.00
2018-06-10T04:30:43.826Z,99414.00
2018-06-10T04:33:12.867Z,99414.00
2018-06-10T04:35:41.918Z,99409.00
2018-06-10T04:38:10.960Z,99401.00
2018-06-10T04:40:40.007Z,99404.00
2018-06-10T04:43:09.107Z,99404.00
2018-06-10T04:45:38.164Z,99408.00
2018-06-10T04:48:07.232Z,99412.00
2018-06-10T04:50:36.287Z,99417.00
2018-06-10T04:53:05.345Z,99413.00
2018-06-10T04:55:34.388Z,99411.00
2018-06-10T04:58:03.443Z,99416.00
2018-06-10T05:00:32.503Z,99418.00
2018-06-10T05:03:01.559Z,99420.00
2018-06-10T05:05:30.596Z,99408.00
2018-06-10T05:07:59.655Z,99403.00
2018-06-10T05:10:28.703Z,99407.00
2018-06-10T05:12:57.666Z,99409.00
2018-06-10T05:15:26.743Z,99412.00
2018-06-10T05:17:55.839Z,99417.00
2018-06-10T05:20:24.880Z,99422.00
2018-06-10T05:22:53.956Z,99418.00
2018-06-10T05:25:23.016Z,99411.00
2018-06-10T05:27:52.079Z,99418.00
2018-06-10T05:30:21.159Z,99412.00
2018-06-10T05:32:50.272Z,99407.00
2018-06-10T05:35:19.342Z,99413.00
2018-06-10T05:37:48.591Z,99419.00
2018-06-10T05:40:17.644Z,99420.00
2018-06-10T05:42:46.711Z,99424.00
2018-06-10T05:45:15.884Z,99423.00
2018-06-10T05:47:44.952Z,99427.00
2018-06-10T05:50:14.040Z,99423.00
2018-06-10T05:52:43.095Z,99425.00
2018-06-10T05:55:12.175Z,99422.00
2018-06-10T05:57:41.244Z,99424.00
2018-06-10T06:00:10.324Z,99426.00
2018-06-10T06:02:39.378Z,99430.00
2018-06-10T06:05:08.480Z,99435.00
2018-06-10T06:07:37.603Z,99433.00
2018-06-10T06:10:06.651Z,99436.00
2018-06-10T06:12:35.707Z,99438.00
2018-06-10T06:15:04.692Z,99440.00
2018-06-10T06:17:33.736Z,99436.00
2018-06-10T06:20:02.845Z,99431.00
2018-06-10T06:22:31.963Z,99427.00
2018-06-10T06:25:01.010Z,99428.00
2018-06-10T06:27:30.061Z,99424.00
2018-06-10T06:29:59.110Z,99426.00
2018-06-10T06:32:28.188Z,99429.00
2018-06-10T06:34:57.236Z,99435.00
2018-06-10T06:37:26.384Z,99429.00
2018-06-10T06:39:55.255Z,99432.00
2018-06-10T06:42:24.427Z,99428.00
2018-06-10T06:44:53.491Z,99429.00
2018-06-10T06:47:22.560Z,99429.00
2018-06-10T06:49:51.635Z,99425.00
2018-06-10T06:52:20.754Z,99426.00
2018-06-10T06:54:49.635Z,99426.00
2018-06-10T06:57:18.715Z,99426.00
2018-06-10T06:59:47.772Z,99421.00
2018-06-10T07:02:16.823Z,99410.00
2018-06-10T07:04:45.887Z,99404.00
2018-06-10T07:07:15.043Z,99404.00
2018-06-10T07:09:44.224Z,99399.00
2018-06-10T07:12:13.622Z,99390.00
2018-06-10T07:14:42.691Z,99391.00
2018-06-10T07:17:11.731Z,99387.00
2018-06-10T07:19:40.599Z,99396.00
2018-06-10T07:22:09.631Z,99397.00
2018-06-10T07:24:38.696Z,99389.00
2018-06-10T07:27:07.740Z,99385.00
2018-06-10T07:29:36.836Z,99384.00
2018-06-10T07:32:05.859Z,99378.00
2018-06-10T07:34:34.940Z,99383.00
2018-06-10T07:37:04.103Z,99378.00
2018-06-10T07:39:33.171Z,99381.00
2018-06-10T07:42:02.240Z,99387.00
2018-06-10T07:44:31.283Z,99375.00
2018-06-10T07:47:00.348Z,99376.00
2018-06-10T07:49:29.443Z,99378.00
2018-06-10T07:51:58.476Z,99382.00
2018-06-10T07:54:27.588Z,99392.00
2018-06-10T07:56:56.628Z,99392.00
2018-06-10T07:59:25.808Z,99391.00
2018-06-10T08:01:54.872Z,99394.00
2018-06-10T08:04:23.923Z,99390.00
2018-06-10T08:06:52.977Z,99383.00
2018-06-10T08:09:21.867Z,99381.00
2018-06-10T08:11:50.934Z,99375.00
2018-06-10T08:14:20.052Z,99378.00
2018-06-10T08:16:49.119Z,99377.00
2018-06-10T08:19:18.198Z,99378.00
2018-06-10T08:21:47.239Z,99369.00
2018-06-10T08:24:16.388Z,99369.00
2018-06-10T08:26:45.431Z,99373.00
2018-06-10T08:29:14.491Z,99367.00
2018-06-10T08:31:43.541Z,99371.00
2018-06-10T08:34:12.703Z,99377.00
2018-06-10T08:36:41.764Z,99376.00
2018-06-10T08:39:10.879Z,99379.00
2018-06-10T08:41:39.930Z,99378.00
2018-06-10T08:44:09.248Z,99377.00
2018-06-10T08:46:38.443Z,99379.00
2018-06-10T08:49:07.561Z,99374.00
2018-06-10T08:51:36.687Z,99378.00
2018-06-10T08:54:06.264Z,99382.00
2018-06-10T08:56:35.347Z,99374.00
2018-06-10T08:59:04.396Z,99378.00
2018-06-10T09:01:33.431Z,99375.00
2018-06-10T09:04:02.528Z,99379.00
2018-06-10T09:06:31.579Z,99378.00
2018-06-10T09:09:00.636Z,99374.00
2018-06-10T09:11:29.900Z,99375.00
2018-06-10T09:13:58.947Z,99378.00
2018-06-10T09:16:27.998Z,99378.00
2018-06-10T09:18:57.120Z,99374.00
2018-06-10T09:21:26.191Z,99373.00
2018-06-10T09:23:55.502Z,99374.00
2018-06-10T09:26:24.584Z,99380.00
2018-06-10T09:28:53.782Z,99374.00
2018-06-10T09:31:22.783Z,99377.00
2018-06-10T09:33:51.870Z,99378.00
2018-06-10T09:36:20.980Z,99387.00
2018-06-10T09:38:50.434Z,99380.00
2018-06-10T09:41:19.499Z,99379.00
2018-06-10T09:43:49.705Z,99380.00
2018-06-10T09:46:18.759Z,99381.00
2018-06-10T09:48:47.797Z,99382.00
2018-06-10T09:51:16.683Z,99380.00
2018-06-10T09:53:45.760Z,99373.00
2018-06-10T09:56:14.967Z,99376.00
2018-06-10T09:58:43.996Z,99365.00
2018-06-10T10:01:13.049Z,99360.00
2018-06-10T10:03:42.165Z,99361.00
2018-06-10T10:06:11.215Z,99365.00
2018-06-10T10:08:40.259Z,99364.00
2018-06-10T10:11:09.319Z,99369.00
2018-06-10T10:13:38.416Z,99375.00
2018-06-10T10:16:07.471Z,99370.00
2018-06-10T10:18:36.607Z,99367.00
2018-06-10T10:21:05.651Z,99371.00
2018-06-10T10:23:34.716Z,99366.00
2018-06-10T10:26:03.771Z,99364.00
2018-06-10T10:28:32.819Z,99363.00
2018-06-10T10:31:01.859Z,99354.00
2018-06-10T10:33:31.015Z,99351.00
2018-06-10T10:36:00.064Z,99346.00
2018-06-10T10:38:29.167Z,99351.00
2018-06-10T10:40:58.204Z,99341.00
2018-06-10T10:43:27.264Z,99339.00
2018-06-10T10:45:56.419Z,99345.00
2018-06-10T10:48:25.545Z,99337.00
2018-06-10T10:50:54.628Z,99342.00
2018-06-10T10:53:23.690Z,99348.00
2018-06-10T10:55:52.746Z,99343.00
2018-06-10T10:58:21.811Z,99339.00
2018-06-10T11:00:51.019Z,99342.00
2018-06-10T11:03:20.067Z,99330.00
2018-06-10T11:05:49.125Z,99336.00
2018-06-10T11:08:18.209Z,99337.00
2018-06-10T11:10:47.300Z,99334.00
2018-06-10T11:13:16.344Z,99328.00
2018-06-10T11:15:45.406Z,99325.00
2018-06-10T11:18:14.443Z,99326.00
2018-06-10T11:20:43.662Z,99323.00
2018-06-10T11:23:12.724Z,99308.00
2018-06-10T11:25:41.783Z,99305.00
2018-06-10T11:28:10.867Z,99301.00
2018-06-10T11:30:39.964Z,99303.00
2018-06-10T11:33:09.013Z,99302.00
2018-06-10T11:35:38.062Z,99301.00
2018-06-10T11:38:07.111Z,99308.00
2018-06-10T11:40:36.187Z,99307.00
2018-06-10T11:43:05.248Z,99312.00
2018-06-10T11:45:34.339Z,99309.00
2018-06-10T11:48:03.448Z,99299.00
2018-06-10T11:50:32.538Z,99293.00
2018-06-10T11:53:01.588Z,99296.00
2018-06-10T11:55:30.774Z,99292.00
2018-06-10T11:58:00.022Z,99286.00
2018-06-10T12:00:29.031Z,99285.00
2018-06-10T12:02:58.089Z,99287.00
2018-06-10T12:05:27.156Z,99279.00
2018-06-10T12:07:56.251Z,99283.00
2018-06-10T12:10:25.339Z,99283.00
2018-06-10T12:12:54.416Z,99281.00
2018-06-10T12:15:23.483Z,99281.00
2018-06-10T12:17:52.527Z,99284.00
2018-06-10T12:20:21.616Z,99287.00
2018-06-10T12:22:50.776Z,99278.00
2018-06-10T12:25:20.159Z,99276.00
2018-06-10T12:27:49.261Z,99272.00
2018-06-10T12:30:18.303Z,99275.00
2018-06-10T12:32:47.356Z,99274.00
2018-06-10T12:35:16.511Z,99272.00
2018-06-10T12:37:45.531Z,99271.00
2018-06-10T12:40:14.625Z,99275.00
2018-06-10T12:42:43.679Z,99274.00
2018-06-10T12:45:12.722Z,99274.00
2018-06-10T12:47:41.775Z,99276.00
2018-06-10T12:50:10.831Z,99281.00
2018-06-10T12:52:39.762Z,99276.00
2018-06-10T12:55:08.814Z,99268.00
2018-06-10T12:57:37.868Z,99266.00
2018-06-10T13:00:06.827Z,99264.00
2018-06-10T13:02:35.887Z,99267.00
2018-06-10T13:05:04.920Z,99261.00
2018-06-10T13:07:34.208Z,99258.00
2018-06-10T13:10:03.347Z,99263.00
2018-06-10T13:12:32.428Z,99259.00
2018-06-10T13:15:01.484Z,99256.00
2018-06-10T13:17:30.531Z,99254.00
2018-06-10T13:19:59.583Z,99252.00
2018-06-10T13:22:28.661Z,99243.00
2018-06-10T13:24:57.735Z,99235.00
2018-06-10T13:27:26.815Z,99238.00
2018-06-10T13:29:55.889Z,99240.00
2018-06-10T13:32:24.956Z,99234.00
2018-06-10T13:34:54.103Z,99250.00
2018-06-10T13:37:23.148Z,99249.00
2018-06-10T13:39:52.217Z,99241.00
2018-06-10T13:42:21.268Z,99243.00
2018-06-10T13:44:50.311Z,99243.00
2018-06-10T13:47:19.361Z,99238.00
2018-06-10T13:49:48.439Z,99236.00
2018-06-10T13:52:17.477Z,99243.00
2018-06-10T13:54:46.568Z,99242.00
2018-06-10T13:57:15.611Z,99243.00
2018-06-10T13:59:44.672Z,99249.00
2018-06-10T14:02:13.764Z,99249.00
2018-06-10T14:04:42.815Z,99248.00
2018-06-10T14:07:11.856Z,99246.00
2018-06-10T14:09:40.921Z,99254.00
2018-06-10T14:12:09.960Z,99248.00
2018-06-10T14:14:39.019Z,99246.00
2018-06-10T14:17:08.059Z,99247.00
2018-06-10T14:19:37.117Z,99252.00
2018-06-10T14:22:06.199Z,99249.00
2018-06-10T14:24:35.252Z,99239.00
2018-06-10T14:27:04.361Z,99242.00
2018-06-10T14:29:33.452Z,99234.00
2018-06-10T14:32:02.518Z,99233.00
2018-06-10T14:34:31.570Z,99227.00
2018-06-10T14:37:00.608Z,99228.00
2018-06-10T14:39:29.729Z,99221.00
2018-06-10T14:41:58.771Z,99225.00
2018-06-10T14:44:27.833Z,99219.00
2018-06-10T14:46:56.931Z,99216.00
2018-06-10T14:49:26.034Z,99216.00
2018-06-10T14:51:55.054Z,99208.00
2018-06-10T14:54:24.104Z,99207.00
2018-06-10T14:56:53.140Z,99205.00
2018-06-10T14:59:22.191Z,99212.00
2018-06-10T15:01:51.280Z,99214.00
2018-06-10T15:04:20.340Z,99213.00
2018-06-10T15:06:49.380Z,99207.00
2018-06-10T15:09:18.440Z,99196.00
2018-06-10T15:11:47.573Z,99199.00
2018-06-10T15:14:16.575Z,99188.00
2018-06-10T15:16:45.715Z,99188.00
2018-06-10T15:19:14.839Z,99185.00
2018-06-10T15:21:43.691Z,99188.00
2018-06-10T15:24:12.740Z,99179.00
2018-06-10T15:26:41.792Z,99178.00
2018-06-10T15:29:10.847Z,99176.00
2018-06-10T15:31:39.650Z,99170.00
2018-06-10T15:34:08.709Z,99166.00
2018-06-10T15:36:37.790Z,99179.00
2018-06-10T15:39:08.796Z,99176.00
2018-06-10T15:41:37.971Z,99169.00
2018-06-10T15:44:07.019Z,99167.00
2018-06-10T15:46:36.140Z,99175.00
2018-06-10T15:49:05.203Z,99173.00
2018-06-10T15:51:34.316Z,99174.00
2018-06-10T15:54:03.379Z,99168.00
2018-06-10T15:56:32.452Z,99162.00
2018-06-10T15:59:01.492Z,99173.00
2018-06-10T16:01:30.545Z,99170.00
2018-06-10T16:03:59.591Z,99172.00
2018-06-10T16:06:28.640Z,99175.00
2018-06-10T16:08:57.743Z,99193.00
2018-06-10T16:11:26.791Z,99188.00
2018-06-10T16:13:55.859Z,99194.00
2018-06-10T16:16:24.758Z,99209.00
2018-06-10T16:18:53.808Z,99205.00
2018-06-10T16:21:22.920Z,99199.00
2018-06-10T16:23:51.980Z,99198.00
2018-06-10T16:26:21.039Z,99200.00
2018-06-10T16:28:50.083Z,99205.00
2018-06-10T16:31:19.131Z,99218.00
2018-06-10T16:33:48.177Z,99207.00
2018-06-10T16:36:17.243Z,99205.00
2018-06-10T16:38:46.301Z,99207.00
2018-06-10T16:41:15.347Z,99201.00
2018-06-10T16:43:44.500Z,99201.00
2018-06-10T16:46:13.563Z,99200.00
2018-06-10T16:48:42.623Z,99192.00
2018-06-10T16:51:11.673Z,99187.00
2018-06-10T16:53:40.771Z,99201.00
2018-06-10T16:56:09.815Z,99213.00
2018-06-10T16:58:38.875Z,99219.00
2018-06-10T17:01:07.935Z,99225.00
2018-06-10T17:03:37.092Z,99219.00
2018-06-10T17:06:06.148Z,99218.00
2018-06-10T17:08:35.262Z,99219.00
2018-06-10T17:11:04.255Z,99225.00
2018-06-10T17:13:33.295Z,99216.00
2018-06-10T17:16:02.386Z,99216.00
2018-06-10T17:18:31.428Z,99210.00
2018-06-10T17:21:00.495Z,99206.00
2018-06-10T17:23:29.571Z,99212.00
2018-06-10T17:25:58.620Z,99213.00
2018-06-10T17:28:27.722Z,99215.00
2018-06-10T17:30:56.755Z,99212.00
2018-06-10T17:33:25.820Z,99212.00
2018-06-10T17:35:54.871Z,99215.00
2018-06-10T17:38:23.923Z,99216.00
2018-06-10T17:40:52.763Z,99220.00
2018-06-10T17:43:21.823Z,99213.00
2018-06-10T17:45:50.873Z,99211.00
2018-06-10T17:48:19.971Z,99203.00
2018-06-10T17:50:49.015Z,99209.00
2018-06-10T17:53:18.063Z,99216.00
2018-06-10T17:55:47.104Z,99216.00
2018-06-10T17:58:16.165Z,99214.00
2018-06-10T18:00:45.228Z,99208.00
2018-06-10T18:03:14.275Z,99197.00
2018-06-10T18:05:43.351Z,99198.00
2018-06-10T18:08:12.404Z,99196.00
2018-06-10T18:10:41.599Z,99202.00
2018-06-10T18:13:10.643Z,99202.00
2018-06-10T18:15:41.470Z,99205.00
2018-06-10T18:18:10.938Z,99213.00
2018-06-10T18:20:40.332Z,99217.00
2018-06-10T18:23:09.880Z,99222.00
2018-06-10T18:25:39.777Z,99222.00
2018-06-10T18:28:09.206Z,99221.00
2018-06-10T18:30:38.190Z,99227.00
2018-06-10T18:33:07.684Z,99236.00
2018-06-10T18:35:36.864Z,99238.00
2018-06-10T18:38:05.966Z,99244.00
2018-06-10T18:40:35.044Z,99251.00
2018-06-10T18:43:04.198Z,99253.00
2018-06-10T18:45:33.267Z,99257.00
2018-06-10T18:48:02.338Z,99259.00
2018-06-10T18:50:31.490Z,99267.00
2018-06-10T18:53:00.552Z,99265.00
2018-06-10T18:55:29.627Z,99268.00
2018-06-10T18:57:58.727Z,99274.00
2018-06-10T19:00:27.869Z,99271.00
2018-06-10T19:02:56.994Z,99267.00
2018-06-10T19:05:26.048Z,99260.00
2018-06-10T19:07:55.103Z,99261.00
2018-06-10T19:10:24.322Z,99257.00
2018-06-10T19:12:53.371Z,99256.00
2018-06-10T19:15:22.414Z,99263.00
2018-06-10T19:17:51.488Z,99269.00
2018-06-10T19:20:20.591Z,99275.00
2018-06-10T19:22:49.644Z,99275.00
2018-06-10T19:25:18.703Z,99279.00
2018-06-10T19:27:47.765Z,99276.00
2018-06-10T19:30:16.840Z,99274.00
2018-06-10T19:32:45.976Z,99275.00
2018-06-10T19:35:14.973Z,99272.00
2018-06-10T19:37:44.380Z,99278.00
2018-06-10T19:40:13.571Z,99277.00
2018-06-10T19:42:42.691Z,99276.00
2018-06-10T19:45:11.808Z,99284.00
2018-06-10T19:47:40.907Z,99291.00
2018-06-10T19:50:10.100Z,99300.00
2018-06-10T19:52:39.151Z,99305.00
2018-06-10T19:55:08.237Z,99310.00
2018-06-10T19:57:37.435Z,99315.00
2018-06-10T20:00:06.548Z,99315.00
2018-06-10T20:02:35.599Z,99312.00
2018-06-10T20:05:05.072Z,99316.00
2018-06-10T20:07:34.112Z,99319.00
2018-06-10T20:10:03.155Z,99317.00
2018-06-10T20:12:32.199Z,99318.00
2018-06-10T20:15:01.335Z,99327.00
2018-06-10T20:17:30.408Z,99333.00
2018-06-10T20:19:59.496Z,99330.00
2018-06-10T20:22:28.699Z,99331.00
2018-06-10T20:24:57.707Z,99330.00
2018-06-10T20:27:26.783Z,99333.00
2018-06-10T20:29:55.858Z,99334.00
2018-06-10T20:32:24.895Z,99336.00
2018-06-10T20:34:53.967Z,99339.00
2018-06-10T20:37:22.787Z,99335.00
2018-06-10T20:39:51.834Z,99340.00
2018-06-10T20:42:20.871Z,99339.00
2018-06-10T20:44:49.939Z,99344.00
2018-06-10T20:47:18.988Z,99346.00
2018-06-10T20:49:47.891Z,99354.00
2018-06-10T20:52:16.923Z,99357.00
2018-06-10T20:54:45.992Z,99360.00
2018-06-10T20:57:15.030Z,99361.00
2018-06-10T20:59:44.087Z,99359.00
2018-06-10T21:02:13.167Z,99351.00
2018-06-10T21:04:42.232Z,99344.00
2018-06-10T21:07:11.279Z,99340.00
2018-06-10T21:09:40.351Z,99340.00
2018-06-10T21:12:09.375Z,99344.00
2018-06-10T21:14:38.451Z,99345.00
2018-06-10T21:17:07.535Z,99348.00
2018-06-10T21:19:36.603Z,99356.00
2018-06-10T21:22:05.648Z,99359.00
2018-06-10T21:24:34.742Z,99363.00
2018-06-10T21:27:03.763Z,99366.00
2018-06-10T21:29:32.840Z,99370.00
2018-06-10T21:32:01.875Z,99376.00
2018-06-10T21:34:30.931Z,99390.00
2018-06-10T21:36:59.979Z,99395.00
2018-06-10T21:39:29.092Z,99398.00
2018-06-10T21:41:58.196Z,99397.00
2018-06-10T21:44:27.259Z,99393.00
2018-06-10T21:46:56.336Z,99393.00
2018-06-10T21:49:25.390Z,99388.00
2018-06-10T21:51:54.430Z,99393.00
2018-06-10T21:54:23.488Z,99397.00
2018-06-10T21:56:52.631Z,99408.00
2018-06-10T21:59:21.681Z,99415.00
2018-06-10T22:01:50.787Z,99434.00
2018-06-10T22:04:19.872Z,99429.00
2018-06-10T22:06:48.879Z,99426.00
2018-06-10T22:09:17.997Z,99432.00
2018-06-10T22:11:46.839Z,99433.00
2018-06-10T22:14:15.892Z,99427.00
2018-06-10T22:16:44.963Z,99420.00
2018-06-10T22:19:14.003Z,99428.00
2018-06-10T22:21:42.831Z,99421.00
2018-06-10T22:24:11.907Z,99420.00
2018-06-10T22:26:40.783Z,99417.00
2018-06-10T22:29:09.836Z,99409.00
2018-06-10T22:31:38.894Z,99400.00
2018-06-10T22:34:07.959Z,99393.00
2018-06-10T22:36:37.012Z,99387.00
2018-06-10T22:39:08.470Z,99386.00
2018-06-10T22:41:37.643Z,99380.00
2018-06-10T22:44:06.688Z,99370.00
2018-06-10T22:46:35.739Z,99367.00
2018-06-10T22:49:04.863Z,99369.00
2018-06-10T22:51:33.998Z,99365.00
2018-06-10T22:54:20.295Z,99357.00
2018-06-10T22:56:49.359Z,99362.00
2018-06-10T22:59:18.387Z,99361.00
2018-06-10T23:01:47.508Z,99371.00
2018-06-10T23:04:16.564Z,99372.00
2018-06-10T23:06:45.627Z,99364.00
2018-06-10T23:09:14.660Z,99366.00
2018-06-10T23:11:43.846Z,99367.00
2018-06-10T23:14:12.940Z,99373.00
2018-06-10T23:16:41.918Z,99370.00
2018-06-10T23:19:10.967Z,99379.00
2018-06-10T23:21:40.094Z,99380.00
2018-06-10T23:24:09.140Z,99390.00
2018-06-10T23:26:38.185Z,99393.00
2018-06-10T23:29:07.228Z,99395.00
2018-06-10T23:31:36.455Z,99384.00
2018-06-10T23:34:05.504Z,99388.00
2018-06-10T23:36:34.567Z,99386.00
2018-06-10T23:39:04.709Z,99386.00
2018-06-10T23:41:33.760Z,99388.00
2018-06-10T23:44:02.799Z,99383.00
2018-06-10T23:46:31.899Z,99375.00
2018-06-10T23:49:00.976Z,99378.00
2018-06-10T23:51:29.860Z,99376.00
2018-06-10T23:53:58.895Z,99373.00
2018-06-10T23:56:27.931Z,99375.00
2018-06-10T23:58:57.008Z,99371.00
